<?xml version="1.0" encoding="UTF-8" standalone="no" ?>
<gpx xmlns="http://www.topografix.com/GPX/1/1" xmlns:xsi="http://www.w3.org/2001/XMLSchema-instance" xsi:schemaLocation="http://www.topografix.com/GPX/1/1 http://www.topografix.com/GPX/1/1/gpx.xsd" version="1.1" creator="VisuGPX - https://www.visugpx.com">
  <metadata>
    <name>2016-12-11 CIRCUIT DES ROCHES À BREITENAU (VAL DE VILLE</name>
    <desc><![CDATA[2016-12-11 CIRCUIT DES ROCHES À BREITENAU (VAL DE VILLE) par Thierry]]></desc>
  </metadata>
  <trk>
    <name><![CDATA[OR-8037791--Breitenau:2016-12-11 CIRCUIT DES ROCHES À BREITENAU (VAL DE VILLE]]></name>
    <trkseg>
      <trkpt lat="48.31329" lon="7.29002">
        <ele>411</ele>
        <time>2017-10-23T21:48:58Z</time>
      </trkpt>
      <trkpt lat="48.31234" lon="7.28893">
        <ele>428</ele>
        <time>2017-10-23T21:50:58Z</time>
      </trkpt>
      <trkpt lat="48.31203" lon="7.28856">
        <ele>434</ele>
        <time>2017-10-23T21:52:58Z</time>
      </trkpt>
      <trkpt lat="48.31093" lon="7.28656">
        <ele>460</ele>
        <time>2017-10-23T21:54:58Z</time>
      </trkpt>
      <trkpt lat="48.31043" lon="7.28584">
        <ele>469</ele>
        <time>2017-10-23T21:56:58Z</time>
      </trkpt>
      <trkpt lat="48.3103" lon="7.28566">
        <ele>471</ele>
        <time>2017-10-23T21:58:58Z</time>
      </trkpt>
      <trkpt lat="48.30984" lon="7.28487">
        <ele>477</ele>
        <time>2017-10-23T22:00:58Z</time>
      </trkpt>
      <trkpt lat="48.30914" lon="7.28371">
        <ele>502</ele>
        <time>2017-10-23T22:02:58Z</time>
      </trkpt>
      <trkpt lat="48.30947" lon="7.2838">
        <ele>507</ele>
        <time>2017-10-23T22:04:58Z</time>
      </trkpt>
      <trkpt lat="48.30973" lon="7.28385">
        <ele>511</ele>
        <time>2017-10-23T22:06:58Z</time>
      </trkpt>
      <trkpt lat="48.30996" lon="7.28377">
        <ele>521</ele>
        <time>2017-10-23T22:08:58Z</time>
      </trkpt>
      <trkpt lat="48.30977" lon="7.28368">
        <ele>519</ele>
        <time>2017-10-23T22:10:58Z</time>
      </trkpt>
      <trkpt lat="48.30952" lon="7.2834">
        <ele>524</ele>
        <time>2017-10-23T22:12:58Z</time>
      </trkpt>
      <trkpt lat="48.30931" lon="7.28306">
        <ele>532</ele>
        <time>2017-10-23T22:14:58Z</time>
      </trkpt>
      <trkpt lat="48.30892" lon="7.28269">
        <ele>538</ele>
        <time>2017-10-23T22:16:58Z</time>
      </trkpt>
      <trkpt lat="48.30942" lon="7.2826">
        <ele>555</ele>
        <time>2017-10-23T22:18:58Z</time>
      </trkpt>
      <trkpt lat="48.30903" lon="7.28229">
        <ele>558</ele>
        <time>2017-10-23T22:20:58Z</time>
      </trkpt>
      <trkpt lat="48.30935" lon="7.28228">
        <ele>568</ele>
        <time>2017-10-23T22:22:58Z</time>
      </trkpt>
      <trkpt lat="48.30888" lon="7.28195">
        <ele>570</ele>
        <time>2017-10-23T22:24:58Z</time>
      </trkpt>
      <trkpt lat="48.30914" lon="7.28191">
        <ele>580</ele>
        <time>2017-10-23T22:26:58Z</time>
      </trkpt>
      <trkpt lat="48.3087" lon="7.28158">
        <ele>582</ele>
        <time>2017-10-23T22:28:58Z</time>
      </trkpt>
      <trkpt lat="48.3092" lon="7.28155">
        <ele>600</ele>
        <time>2017-10-23T22:30:58Z</time>
      </trkpt>
      <trkpt lat="48.30904" lon="7.28134">
        <ele>605</ele>
        <time>2017-10-23T22:32:58Z</time>
      </trkpt>
      <trkpt lat="48.3101" lon="7.28155">
        <ele>630</ele>
        <time>2017-10-23T22:34:58Z</time>
      </trkpt>
      <trkpt lat="48.30961" lon="7.28112">
        <ele>634</ele>
        <time>2017-10-23T22:36:58Z</time>
      </trkpt>
      <trkpt lat="48.31055" lon="7.28121">
        <ele>658</ele>
        <time>2017-10-23T22:38:58Z</time>
      </trkpt>
      <trkpt lat="48.30985" lon="7.28074">
        <ele>657</ele>
        <time>2017-10-23T22:40:58Z</time>
      </trkpt>
      <trkpt lat="48.31048" lon="7.28072">
        <ele>675</ele>
        <time>2017-10-23T22:42:58Z</time>
      </trkpt>
      <trkpt lat="48.30992" lon="7.28029">
        <ele>674</ele>
        <time>2017-10-23T22:44:58Z</time>
      </trkpt>
      <trkpt lat="48.30957" lon="7.28009">
        <ele>673</ele>
        <time>2017-10-23T22:46:58Z</time>
      </trkpt>
      <trkpt lat="48.3093" lon="7.27983">
        <ele>672</ele>
        <time>2017-10-23T22:48:58Z</time>
      </trkpt>
      <trkpt lat="48.30889" lon="7.27919">
        <ele>672</ele>
        <time>2017-10-23T22:50:58Z</time>
      </trkpt>
      <trkpt lat="48.30859" lon="7.27889">
        <ele>675</ele>
        <time>2017-10-23T22:52:58Z</time>
      </trkpt>
      <trkpt lat="48.30784" lon="7.2786">
        <ele>684</ele>
        <time>2017-10-23T22:54:58Z</time>
      </trkpt>
      <trkpt lat="48.30721" lon="7.27872">
        <ele>684</ele>
        <time>2017-10-23T22:56:58Z</time>
      </trkpt>
      <trkpt lat="48.30697" lon="7.27865">
        <ele>686</ele>
        <time>2017-10-23T22:58:58Z</time>
      </trkpt>
      <trkpt lat="48.30637" lon="7.27886">
        <ele>681</ele>
        <time>2017-10-23T23:00:58Z</time>
      </trkpt>
      <trkpt lat="48.30636" lon="7.27892">
        <ele>680</ele>
        <time>2017-10-23T23:02:58Z</time>
      </trkpt>
      <trkpt lat="48.30649" lon="7.27904">
        <ele>679</ele>
        <time>2017-10-23T23:04:58Z</time>
      </trkpt>
      <trkpt lat="48.30598" lon="7.27912">
        <ele>674</ele>
        <time>2017-10-23T23:06:58Z</time>
      </trkpt>
      <trkpt lat="48.30543" lon="7.27905">
        <ele>667</ele>
        <time>2017-10-23T23:08:58Z</time>
      </trkpt>
      <trkpt lat="48.30517" lon="7.27911">
        <ele>662</ele>
        <time>2017-10-23T23:10:58Z</time>
      </trkpt>
      <trkpt lat="48.3047" lon="7.27939">
        <ele>657</ele>
        <time>2017-10-23T23:12:58Z</time>
      </trkpt>
      <trkpt lat="48.30459" lon="7.27974">
        <ele>652</ele>
        <time>2017-10-23T23:14:58Z</time>
      </trkpt>
      <trkpt lat="48.3044" lon="7.27969">
        <ele>653</ele>
        <time>2017-10-23T23:16:58Z</time>
      </trkpt>
      <trkpt lat="48.30416" lon="7.27976">
        <ele>653</ele>
        <time>2017-10-23T23:18:58Z</time>
      </trkpt>
      <trkpt lat="48.30358" lon="7.28017">
        <ele>655</ele>
        <time>2017-10-23T23:20:58Z</time>
      </trkpt>
      <trkpt lat="48.30322" lon="7.28098">
        <ele>652</ele>
        <time>2017-10-23T23:22:58Z</time>
      </trkpt>
      <trkpt lat="48.30289" lon="7.28144">
        <ele>652</ele>
        <time>2017-10-23T23:24:58Z</time>
      </trkpt>
      <trkpt lat="48.30236" lon="7.28195">
        <ele>654</ele>
        <time>2017-10-23T23:26:58Z</time>
      </trkpt>
      <trkpt lat="48.30166" lon="7.28259">
        <ele>658</ele>
        <time>2017-10-23T23:28:58Z</time>
      </trkpt>
      <trkpt lat="48.30132" lon="7.28279">
        <ele>659</ele>
        <time>2017-10-23T23:30:58Z</time>
      </trkpt>
      <trkpt lat="48.30039" lon="7.28325">
        <ele>666</ele>
        <time>2017-10-23T23:32:58Z</time>
      </trkpt>
      <trkpt lat="48.30035" lon="7.28332">
        <ele>665</ele>
        <time>2017-10-23T23:34:58Z</time>
      </trkpt>
      <trkpt lat="48.30065" lon="7.28377">
        <ele>664</ele>
        <time>2017-10-23T23:36:58Z</time>
      </trkpt>
      <trkpt lat="48.30092" lon="7.2841">
        <ele>661</ele>
        <time>2017-10-23T23:38:58Z</time>
      </trkpt>
      <trkpt lat="48.30118" lon="7.28508">
        <ele>660</ele>
        <time>2017-10-23T23:40:58Z</time>
      </trkpt>
      <trkpt lat="48.30118" lon="7.28572">
        <ele>663</ele>
        <time>2017-10-23T23:42:58Z</time>
      </trkpt>
      <trkpt lat="48.30103" lon="7.28788">
        <ele>669</ele>
        <time>2017-10-23T23:44:58Z</time>
      </trkpt>
      <trkpt lat="48.30105" lon="7.28839">
        <ele>669</ele>
        <time>2017-10-23T23:46:58Z</time>
      </trkpt>
      <trkpt lat="48.30118" lon="7.28853">
        <ele>668</ele>
        <time>2017-10-23T23:48:58Z</time>
      </trkpt>
      <trkpt lat="48.30148" lon="7.28828">
        <ele>662</ele>
        <time>2017-10-23T23:50:58Z</time>
      </trkpt>
      <trkpt lat="48.30234" lon="7.28705">
        <ele>657</ele>
        <time>2017-10-23T23:52:58Z</time>
      </trkpt>
      <trkpt lat="48.30276" lon="7.28639">
        <ele>653</ele>
        <time>2017-10-23T23:54:58Z</time>
      </trkpt>
      <trkpt lat="48.30325" lon="7.28602">
        <ele>661</ele>
        <time>2017-10-23T23:56:58Z</time>
      </trkpt>
      <trkpt lat="48.30379" lon="7.28672">
        <ele>677</ele>
        <time>2017-10-23T23:58:58Z</time>
      </trkpt>
      <trkpt lat="48.3044" lon="7.28754">
        <ele>690</ele>
        <time>2017-10-24T00:00:58Z</time>
      </trkpt>
      <trkpt lat="48.30457" lon="7.28797">
        <ele>698</ele>
        <time>2017-10-24T00:02:58Z</time>
      </trkpt>
      <trkpt lat="48.30468" lon="7.28864">
        <ele>710</ele>
        <time>2017-10-24T00:04:58Z</time>
      </trkpt>
      <trkpt lat="48.30465" lon="7.28955">
        <ele>725</ele>
        <time>2017-10-24T00:06:58Z</time>
      </trkpt>
      <trkpt lat="48.30483" lon="7.29008">
        <ele>727</ele>
        <time>2017-10-24T00:08:58Z</time>
      </trkpt>
      <trkpt lat="48.3049" lon="7.29048">
        <ele>728</ele>
        <time>2017-10-24T00:10:58Z</time>
      </trkpt>
      <trkpt lat="48.3048" lon="7.29106">
        <ele>734</ele>
        <time>2017-10-24T00:12:58Z</time>
      </trkpt>
      <trkpt lat="48.30464" lon="7.29179">
        <ele>740</ele>
        <time>2017-10-24T00:14:58Z</time>
      </trkpt>
      <trkpt lat="48.3044" lon="7.29283">
        <ele>742</ele>
        <time>2017-10-24T00:16:58Z</time>
      </trkpt>
      <trkpt lat="48.30424" lon="7.29313">
        <ele>745</ele>
        <time>2017-10-24T00:18:58Z</time>
      </trkpt>
      <trkpt lat="48.30404" lon="7.29332">
        <ele>747</ele>
        <time>2017-10-24T00:20:58Z</time>
      </trkpt>
      <trkpt lat="48.30375" lon="7.29347">
        <ele>750</ele>
        <time>2017-10-24T00:22:58Z</time>
      </trkpt>
      <trkpt lat="48.30346" lon="7.29372">
        <ele>752</ele>
        <time>2017-10-24T00:24:58Z</time>
      </trkpt>
      <trkpt lat="48.30304" lon="7.2942">
        <ele>751</ele>
        <time>2017-10-24T00:26:58Z</time>
      </trkpt>
      <trkpt lat="48.30296" lon="7.29428">
        <ele>752</ele>
        <time>2017-10-24T00:28:58Z</time>
      </trkpt>
      <trkpt lat="48.30241" lon="7.29514">
        <ele>767</ele>
        <time>2017-10-24T00:30:58Z</time>
      </trkpt>
      <trkpt lat="48.3018" lon="7.29579">
        <ele>778</ele>
        <time>2017-10-24T00:32:58Z</time>
      </trkpt>
      <trkpt lat="48.30157" lon="7.29597">
        <ele>783</ele>
        <time>2017-10-24T00:34:58Z</time>
      </trkpt>
      <trkpt lat="48.30134" lon="7.296">
        <ele>785</ele>
        <time>2017-10-24T00:36:58Z</time>
      </trkpt>
      <trkpt lat="48.30113" lon="7.29598">
        <ele>787</ele>
        <time>2017-10-24T00:38:58Z</time>
      </trkpt>
      <trkpt lat="48.30094" lon="7.29589">
        <ele>787</ele>
        <time>2017-10-24T00:40:58Z</time>
      </trkpt>
      <trkpt lat="48.30068" lon="7.29574">
        <ele>787</ele>
        <time>2017-10-24T00:42:58Z</time>
      </trkpt>
      <trkpt lat="48.30057" lon="7.29573">
        <ele>788</ele>
        <time>2017-10-24T00:44:58Z</time>
      </trkpt>
      <trkpt lat="48.30051" lon="7.29595">
        <ele>792</ele>
        <time>2017-10-24T00:46:58Z</time>
      </trkpt>
      <trkpt lat="48.30021" lon="7.29631">
        <ele>799</ele>
        <time>2017-10-24T00:48:58Z</time>
      </trkpt>
      <trkpt lat="48.29995" lon="7.29675">
        <ele>805</ele>
        <time>2017-10-24T00:50:58Z</time>
      </trkpt>
      <trkpt lat="48.29978" lon="7.29728">
        <ele>808</ele>
        <time>2017-10-24T00:52:58Z</time>
      </trkpt>
      <trkpt lat="48.29969" lon="7.2974">
        <ele>809</ele>
        <time>2017-10-24T00:54:58Z</time>
      </trkpt>
      <trkpt lat="48.29972" lon="7.29775">
        <ele>811</ele>
        <time>2017-10-24T00:56:58Z</time>
      </trkpt>
      <trkpt lat="48.29978" lon="7.29791">
        <ele>812</ele>
        <time>2017-10-24T00:58:58Z</time>
      </trkpt>
      <trkpt lat="48.29983" lon="7.29829">
        <ele>813</ele>
        <time>2017-10-24T01:00:58Z</time>
      </trkpt>
      <trkpt lat="48.30005" lon="7.29873">
        <ele>813</ele>
        <time>2017-10-24T01:02:58Z</time>
      </trkpt>
      <trkpt lat="48.3001" lon="7.29884">
        <ele>812</ele>
        <time>2017-10-24T01:04:58Z</time>
      </trkpt>
      <trkpt lat="48.30011" lon="7.29906">
        <ele>812</ele>
        <time>2017-10-24T01:06:58Z</time>
      </trkpt>
      <trkpt lat="48.30022" lon="7.29943">
        <ele>812</ele>
        <time>2017-10-24T01:08:58Z</time>
      </trkpt>
      <trkpt lat="48.30027" lon="7.29985">
        <ele>813</ele>
        <time>2017-10-24T01:10:58Z</time>
      </trkpt>
      <trkpt lat="48.29995" lon="7.3018">
        <ele>825</ele>
        <time>2017-10-24T01:12:58Z</time>
      </trkpt>
      <trkpt lat="48.29989" lon="7.30198">
        <ele>826</ele>
        <time>2017-10-24T01:14:58Z</time>
      </trkpt>
      <trkpt lat="48.29983" lon="7.3021">
        <ele>827</ele>
        <time>2017-10-24T01:16:58Z</time>
      </trkpt>
      <trkpt lat="48.29931" lon="7.30269">
        <ele>832</ele>
        <time>2017-10-24T01:18:58Z</time>
      </trkpt>
      <trkpt lat="48.29916" lon="7.30298">
        <ele>831</ele>
        <time>2017-10-24T01:20:58Z</time>
      </trkpt>
      <trkpt lat="48.29903" lon="7.3033">
        <ele>830</ele>
        <time>2017-10-24T01:22:58Z</time>
      </trkpt>
      <trkpt lat="48.2989" lon="7.30388">
        <ele>824</ele>
        <time>2017-10-24T01:24:58Z</time>
      </trkpt>
      <trkpt lat="48.29864" lon="7.30442">
        <ele>822</ele>
        <time>2017-10-24T01:26:58Z</time>
      </trkpt>
      <trkpt lat="48.29844" lon="7.30514">
        <ele>820</ele>
        <time>2017-10-24T01:28:58Z</time>
      </trkpt>
      <trkpt lat="48.29821" lon="7.30578">
        <ele>820</ele>
        <time>2017-10-24T01:30:58Z</time>
      </trkpt>
      <trkpt lat="48.29804" lon="7.30589">
        <ele>823</ele>
        <time>2017-10-24T01:32:58Z</time>
      </trkpt>
      <trkpt lat="48.29784" lon="7.30608">
        <ele>825</ele>
        <time>2017-10-24T01:34:58Z</time>
      </trkpt>
      <trkpt lat="48.29751" lon="7.30634">
        <ele>832</ele>
        <time>2017-10-24T01:36:58Z</time>
      </trkpt>
      <trkpt lat="48.29725" lon="7.30683">
        <ele>835</ele>
        <time>2017-10-24T01:38:58Z</time>
      </trkpt>
      <trkpt lat="48.29704" lon="7.30751">
        <ele>837</ele>
        <time>2017-10-24T01:40:58Z</time>
      </trkpt>
      <trkpt lat="48.29695" lon="7.30871">
        <ele>842</ele>
        <time>2017-10-24T01:42:58Z</time>
      </trkpt>
      <trkpt lat="48.29689" lon="7.30919">
        <ele>843</ele>
        <time>2017-10-24T01:44:58Z</time>
      </trkpt>
      <trkpt lat="48.29681" lon="7.30945">
        <ele>844</ele>
        <time>2017-10-24T01:46:58Z</time>
      </trkpt>
      <trkpt lat="48.29664" lon="7.30968">
        <ele>846</ele>
        <time>2017-10-24T01:48:58Z</time>
      </trkpt>
      <trkpt lat="48.29628" lon="7.30986">
        <ele>847</ele>
        <time>2017-10-24T01:50:58Z</time>
      </trkpt>
      <trkpt lat="48.29614" lon="7.31">
        <ele>848</ele>
        <time>2017-10-24T01:52:58Z</time>
      </trkpt>
      <trkpt lat="48.29546" lon="7.31092">
        <ele>850</ele>
        <time>2017-10-24T01:54:58Z</time>
      </trkpt>
      <trkpt lat="48.29527" lon="7.31144">
        <ele>849</ele>
        <time>2017-10-24T01:56:58Z</time>
      </trkpt>
      <trkpt lat="48.29518" lon="7.31203">
        <ele>851</ele>
        <time>2017-10-24T01:58:58Z</time>
      </trkpt>
      <trkpt lat="48.29517" lon="7.31243">
        <ele>853</ele>
        <time>2017-10-24T02:00:58Z</time>
      </trkpt>
      <trkpt lat="48.29538" lon="7.3127">
        <ele>852</ele>
        <time>2017-10-24T02:02:58Z</time>
      </trkpt>
      <trkpt lat="48.29545" lon="7.31286">
        <ele>850</ele>
        <time>2017-10-24T02:04:58Z</time>
      </trkpt>
      <trkpt lat="48.29525" lon="7.31258">
        <ele>853</ele>
        <time>2017-10-24T02:06:58Z</time>
      </trkpt>
      <trkpt lat="48.29516" lon="7.31238">
        <ele>852</ele>
        <time>2017-10-24T02:08:58Z</time>
      </trkpt>
      <trkpt lat="48.2955" lon="7.31085">
        <ele>850</ele>
        <time>2017-10-24T02:10:58Z</time>
      </trkpt>
      <trkpt lat="48.29618" lon="7.30991">
        <ele>847</ele>
        <time>2017-10-24T02:12:58Z</time>
      </trkpt>
      <trkpt lat="48.29673" lon="7.3096">
        <ele>845</ele>
        <time>2017-10-24T02:14:58Z</time>
      </trkpt>
      <trkpt lat="48.29693" lon="7.30903">
        <ele>842</ele>
        <time>2017-10-24T02:16:58Z</time>
      </trkpt>
      <trkpt lat="48.29699" lon="7.30775">
        <ele>839</ele>
        <time>2017-10-24T02:18:58Z</time>
      </trkpt>
      <trkpt lat="48.29714" lon="7.30714">
        <ele>836</ele>
        <time>2017-10-24T02:20:58Z</time>
      </trkpt>
      <trkpt lat="48.29747" lon="7.30637">
        <ele>832</ele>
        <time>2017-10-24T02:22:58Z</time>
      </trkpt>
      <trkpt lat="48.29815" lon="7.30576">
        <ele>822</ele>
        <time>2017-10-24T02:24:58Z</time>
      </trkpt>
      <trkpt lat="48.29825" lon="7.30589">
        <ele>819</ele>
        <time>2017-10-24T02:26:58Z</time>
      </trkpt>
      <trkpt lat="48.29821" lon="7.30614">
        <ele>818</ele>
        <time>2017-10-24T02:28:58Z</time>
      </trkpt>
      <trkpt lat="48.29814" lon="7.30645">
        <ele>817</ele>
        <time>2017-10-24T02:30:58Z</time>
      </trkpt>
      <trkpt lat="48.29836" lon="7.3085">
        <ele>803</ele>
        <time>2017-10-24T02:32:58Z</time>
      </trkpt>
      <trkpt lat="48.29832" lon="7.30872">
        <ele>803</ele>
        <time>2017-10-24T02:34:58Z</time>
      </trkpt>
      <trkpt lat="48.2982" lon="7.3097">
        <ele>801</ele>
        <time>2017-10-24T02:36:58Z</time>
      </trkpt>
      <trkpt lat="48.29819" lon="7.31084">
        <ele>793</ele>
        <time>2017-10-24T02:38:58Z</time>
      </trkpt>
      <trkpt lat="48.29827" lon="7.3109">
        <ele>788</ele>
        <time>2017-10-24T02:40:58Z</time>
      </trkpt>
      <trkpt lat="48.29833" lon="7.31081">
        <ele>787</ele>
        <time>2017-10-24T02:42:58Z</time>
      </trkpt>
      <trkpt lat="48.29842" lon="7.3104">
        <ele>787</ele>
        <time>2017-10-24T02:44:58Z</time>
      </trkpt>
      <trkpt lat="48.29867" lon="7.3097">
        <ele>785</ele>
        <time>2017-10-24T02:46:58Z</time>
      </trkpt>
      <trkpt lat="48.29885" lon="7.3094">
        <ele>781</ele>
        <time>2017-10-24T02:48:58Z</time>
      </trkpt>
      <trkpt lat="48.299" lon="7.30929">
        <ele>776</ele>
        <time>2017-10-24T02:50:58Z</time>
      </trkpt>
      <trkpt lat="48.29961" lon="7.30876">
        <ele>768</ele>
        <time>2017-10-24T02:52:58Z</time>
      </trkpt>
      <trkpt lat="48.29982" lon="7.30878">
        <ele>764</ele>
        <time>2017-10-24T02:54:58Z</time>
      </trkpt>
      <trkpt lat="48.30002" lon="7.30893">
        <ele>760</ele>
        <time>2017-10-24T02:56:58Z</time>
      </trkpt>
      <trkpt lat="48.30033" lon="7.30779">
        <ele>762</ele>
        <time>2017-10-24T02:58:58Z</time>
      </trkpt>
      <trkpt lat="48.30052" lon="7.30708">
        <ele>760</ele>
        <time>2017-10-24T03:00:58Z</time>
      </trkpt>
      <trkpt lat="48.30075" lon="7.30659">
        <ele>756</ele>
        <time>2017-10-24T03:02:58Z</time>
      </trkpt>
      <trkpt lat="48.30086" lon="7.30604">
        <ele>751</ele>
        <time>2017-10-24T03:04:58Z</time>
      </trkpt>
      <trkpt lat="48.30094" lon="7.30536">
        <ele>752</ele>
        <time>2017-10-24T03:06:58Z</time>
      </trkpt>
      <trkpt lat="48.301" lon="7.30523">
        <ele>751</ele>
        <time>2017-10-24T03:08:58Z</time>
      </trkpt>
      <trkpt lat="48.30119" lon="7.30511">
        <ele>746</ele>
        <time>2017-10-24T03:10:58Z</time>
      </trkpt>
      <trkpt lat="48.3018" lon="7.30449">
        <ele>731</ele>
        <time>2017-10-24T03:12:58Z</time>
      </trkpt>
      <trkpt lat="48.30215" lon="7.30367">
        <ele>722</ele>
        <time>2017-10-24T03:14:58Z</time>
      </trkpt>
      <trkpt lat="48.30241" lon="7.30273">
        <ele>713</ele>
        <time>2017-10-24T03:16:58Z</time>
      </trkpt>
      <trkpt lat="48.30252" lon="7.30162">
        <ele>710</ele>
        <time>2017-10-24T03:18:58Z</time>
      </trkpt>
      <trkpt lat="48.30249" lon="7.30073">
        <ele>705</ele>
        <time>2017-10-24T03:20:58Z</time>
      </trkpt>
      <trkpt lat="48.3025" lon="7.30021">
        <ele>705</ele>
        <time>2017-10-24T03:22:58Z</time>
      </trkpt>
      <trkpt lat="48.30255" lon="7.29997">
        <ele>703</ele>
        <time>2017-10-24T03:24:58Z</time>
      </trkpt>
      <trkpt lat="48.30265" lon="7.29974">
        <ele>702</ele>
        <time>2017-10-24T03:26:58Z</time>
      </trkpt>
      <trkpt lat="48.30317" lon="7.29898">
        <ele>690</ele>
        <time>2017-10-24T03:28:58Z</time>
      </trkpt>
      <trkpt lat="48.3033" lon="7.2987">
        <ele>691</ele>
        <time>2017-10-24T03:30:58Z</time>
      </trkpt>
      <trkpt lat="48.3036" lon="7.29819">
        <ele>686</ele>
        <time>2017-10-24T03:32:58Z</time>
      </trkpt>
      <trkpt lat="48.30395" lon="7.29744">
        <ele>675</ele>
        <time>2017-10-24T03:34:58Z</time>
      </trkpt>
      <trkpt lat="48.30409" lon="7.29687">
        <ele>675</ele>
        <time>2017-10-24T03:36:58Z</time>
      </trkpt>
      <trkpt lat="48.30431" lon="7.29629">
        <ele>670</ele>
        <time>2017-10-24T03:38:58Z</time>
      </trkpt>
      <trkpt lat="48.30463" lon="7.29564">
        <ele>660</ele>
        <time>2017-10-24T03:40:58Z</time>
      </trkpt>
      <trkpt lat="48.30508" lon="7.29494">
        <ele>648</ele>
        <time>2017-10-24T03:42:58Z</time>
      </trkpt>
      <trkpt lat="48.30562" lon="7.29409">
        <ele>643</ele>
        <time>2017-10-24T03:44:58Z</time>
      </trkpt>
      <trkpt lat="48.30619" lon="7.2931">
        <ele>634</ele>
        <time>2017-10-24T03:46:58Z</time>
      </trkpt>
      <trkpt lat="48.3066" lon="7.29211">
        <ele>625</ele>
        <time>2017-10-24T03:48:58Z</time>
      </trkpt>
      <trkpt lat="48.30687" lon="7.29153">
        <ele>618</ele>
        <time>2017-10-24T03:50:58Z</time>
      </trkpt>
      <trkpt lat="48.30708" lon="7.29102">
        <ele>614</ele>
        <time>2017-10-24T03:52:58Z</time>
      </trkpt>
      <trkpt lat="48.30731" lon="7.29028">
        <ele>611</ele>
        <time>2017-10-24T03:54:58Z</time>
      </trkpt>
      <trkpt lat="48.30752" lon="7.28957">
        <ele>609</ele>
        <time>2017-10-24T03:56:58Z</time>
      </trkpt>
      <trkpt lat="48.30755" lon="7.28939">
        <ele>609</ele>
        <time>2017-10-24T03:58:58Z</time>
      </trkpt>
      <trkpt lat="48.30776" lon="7.28901">
        <ele>600</ele>
        <time>2017-10-24T04:00:58Z</time>
      </trkpt>
      <trkpt lat="48.30779" lon="7.28976">
        <ele>592</ele>
        <time>2017-10-24T04:02:58Z</time>
      </trkpt>
      <trkpt lat="48.30814" lon="7.28987">
        <ele>572</ele>
        <time>2017-10-24T04:04:58Z</time>
      </trkpt>
      <trkpt lat="48.30832" lon="7.28917">
        <ele>570</ele>
        <time>2017-10-24T04:06:58Z</time>
      </trkpt>
      <trkpt lat="48.30829" lon="7.28806">
        <ele>564</ele>
        <time>2017-10-24T04:08:58Z</time>
      </trkpt>
      <trkpt lat="48.30864" lon="7.28858">
        <ele>552</ele>
        <time>2017-10-24T04:10:58Z</time>
      </trkpt>
      <trkpt lat="48.30926" lon="7.29015">
        <ele>516</ele>
        <time>2017-10-24T04:12:58Z</time>
      </trkpt>
      <trkpt lat="48.30941" lon="7.28984">
        <ele>514</ele>
        <time>2017-10-24T04:14:58Z</time>
      </trkpt>
      <trkpt lat="48.30958" lon="7.28939">
        <ele>512</ele>
        <time>2017-10-24T04:16:58Z</time>
      </trkpt>
      <trkpt lat="48.3097" lon="7.28893">
        <ele>507</ele>
        <time>2017-10-24T04:18:58Z</time>
      </trkpt>
      <trkpt lat="48.30979" lon="7.2893">
        <ele>505</ele>
        <time>2017-10-24T04:20:58Z</time>
      </trkpt>
      <trkpt lat="48.30987" lon="7.28966">
        <ele>499</ele>
        <time>2017-10-24T04:22:58Z</time>
      </trkpt>
      <trkpt lat="48.30985" lon="7.29008">
        <ele>496</ele>
        <time>2017-10-24T04:24:58Z</time>
      </trkpt>
      <trkpt lat="48.30974" lon="7.29058">
        <ele>494</ele>
        <time>2017-10-24T04:26:58Z</time>
      </trkpt>
      <trkpt lat="48.30963" lon="7.29118">
        <ele>489</ele>
        <time>2017-10-24T04:28:58Z</time>
      </trkpt>
      <trkpt lat="48.30929" lon="7.29217">
        <ele>484</ele>
        <time>2017-10-24T04:30:58Z</time>
      </trkpt>
      <trkpt lat="48.30979" lon="7.29185">
        <ele>473</ele>
        <time>2017-10-24T04:32:58Z</time>
      </trkpt>
      <trkpt lat="48.31011" lon="7.29152">
        <ele>469</ele>
        <time>2017-10-24T04:34:58Z</time>
      </trkpt>
      <trkpt lat="48.31012" lon="7.29215">
        <ele>460</ele>
        <time>2017-10-24T04:36:58Z</time>
      </trkpt>
      <trkpt lat="48.31056" lon="7.29159">
        <ele>456</ele>
        <time>2017-10-24T04:38:58Z</time>
      </trkpt>
      <trkpt lat="48.31084" lon="7.29133">
        <ele>449</ele>
        <time>2017-10-24T04:40:58Z</time>
      </trkpt>
      <trkpt lat="48.31121" lon="7.29111">
        <ele>446</ele>
        <time>2017-10-24T04:42:58Z</time>
      </trkpt>
      <trkpt lat="48.31128" lon="7.29104">
        <ele>445</ele>
        <time>2017-10-24T04:44:58Z</time>
      </trkpt>
      <trkpt lat="48.31143" lon="7.29083">
        <ele>442</ele>
        <time>2017-10-24T04:46:58Z</time>
      </trkpt>
      <trkpt lat="48.31163" lon="7.29069">
        <ele>440</ele>
        <time>2017-10-24T04:48:58Z</time>
      </trkpt>
      <trkpt lat="48.31193" lon="7.29073">
        <ele>437</ele>
        <time>2017-10-24T04:50:58Z</time>
      </trkpt>
      <trkpt lat="48.31242" lon="7.29033">
        <ele>425</ele>
        <time>2017-10-24T04:52:58Z</time>
      </trkpt>
      <trkpt lat="48.31257" lon="7.29028">
        <ele>422</ele>
        <time>2017-10-24T04:54:58Z</time>
      </trkpt>
      <trkpt lat="48.31295" lon="7.29034">
        <ele>419</ele>
        <time>2017-10-24T04:56:58Z</time>
      </trkpt>
      <trkpt lat="48.31311" lon="7.29027">
        <ele>416</ele>
        <time>2017-10-24T04:58:58Z</time>
      </trkpt>
      <trkpt lat="48.31335" lon="7.28997">
        <ele>410</ele>
        <time>2017-10-24T05:00:58Z</time>
      </trkpt>
    </trkseg>
  </trk>
</gpx>